sensor_id;sensor_type;location;lat;lon;timestamp;temperature;humidity
37938;DHT22;23763;48.130;11.602;2022-10-30T00:00:18;14.90;99.90
37938;DHT22;23763;48.130;11.602;2022-10-30T00:02:46;14.80;99.90
37938;DHT22;23763;48.130;11.602;2022-10-30T00:05:12;14.80;99.90
37938;DHT22;23763;48.130;11.602;2022-10-30T00:07:38;14.70;99.90
37938;DHT22;23763;48.130;11.602;2022-10-30T00:10:04;14.70;99.90
37938;DHT22;23763;48.130;11.602;2022-10-30T00:12:30;14.70;99.90
37938;DHT22;23763;48.130;11.602;2022-10-30T00:14:55;14.70;99.90
37938;DHT22;23763;48.130;11.602;2022-10-30T00:17:21;14.70;99.90
37938;DHT22;23763;48.130;11.602;2022-10-30T00:19:47;14.80;99.90
37938;DHT22;23763;48.130;11.602;2022-10-30T00:22:13;14.70;99.90
37938;DHT22;23763;48.130;11.602;2022-10-30T00:24:38;14.70;99.90
37938;DHT22;23763;48.130;11.602;2022-10-30T00:27:04;14.80;99.90
37938;DHT22;23763;48.130;11.602;2022-10-30T00:29:30;14.70;99.90
37938;DHT22;23763;48.130;11.602;2022-10-30T00:31:55;14.70;99.90
37938;DHT22;23763;48.130;11.602;2022-10-30T00:34:21;14.70;99.90
37938;DHT22;23763;48.130;11.602;2022-10-30T00:36:46;14.80;99.90
37938;DHT22;23763;48.130;11.602;2022-10-30T00:39:12;14.70;99.90
37938;DHT22;23763;48.130;11.602;2022-10-30T00:41:38;14.60;99.90
37938;DHT22;23763;48.130;11.602;2022-10-30T00:50:19;14.50;99.90
37938;DHT22;23763;48.130;11.602;2022-10-30T00:53:06;14.50;99.90
37938;DHT22;23763;48.130;11.602;2022-10-30T00:55:41;14.50;99.90
37938;DHT22;23763;48.130;11.602;2022-10-30T00:58:11;14.50;99.90
37938;DHT22;23763;48.130;11.602;2022-10-30T01:00:39;14.40;99.90
37938;DHT22;23763;48.130;11.602;2022-10-30T01:03:06;14.40;99.90
37938;DHT22;23763;48.130;11.602;2022-10-30T01:05:32;14.40;99.90
37938;DHT22;23763;48.130;11.602;2022-10-30T01:07:59;14.40;99.90
37938;DHT22;23763;48.130;11.602;2022-10-30T01:10:25;14.60;99.90
37938;DHT22;23763;48.130;11.602;2022-10-30T01:12:52;14.30;99.90
37938;DHT22;23763;48.130;11.602;2022-10-30T01:15:24;14.30;99.90
37938;DHT22;23763;48.130;11.602;2022-10-30T01:18:02;14.30;99.90
37938;DHT22;23763;48.130;11.602;2022-10-30T01:29:38;14.30;99.90
37938;DHT22;23763;48.130;11.602;2022-10-30T01:32:11;14.20;99.90
37938;DHT22;23763;48.130;11.602;2022-10-30T01:34:54;14.10;99.90
37938;DHT22;23763;48.130;11.602;2022-10-30T01:37:58;14.20;99.90
37938;DHT22;23763;48.130;11.602;2022-10-30T01:40:28;14.20;99.90
37938;DHT22;23763;48.130;11.602;2022-10-30T01:42:56;14.20;99.90
37938;DHT22;23763;48.130;11.602;2022-10-30T01:53:48;14.10;99.90
37938;DHT22;23763;48.130;11.602;2022-10-30T01:56:42;14.10;99.90
37938;DHT22;23763;48.130;11.602;2022-10-30T01:59:25;14.10;99.90
37938;DHT22;23763;48.130;11.602;2022-10-30T02:01:53;14.00;99.90
37938;DHT22;23763;48.130;11.602;2022-10-30T02:04:19;14.00;99.90
37938;DHT22;23763;48.130;11.602;2022-10-30T02:06:45;13.90;99.90
37938;DHT22;23763;48.130;11.602;2022-10-30T02:09:10;13.90;99.90
37938;DHT22;23763;48.130;11.602;2022-10-30T02:11:39;13.90;99.90
37938;DHT22;23763;48.130;11.602;2022-10-30T02:14:06;13.90;99.90
37938;DHT22;23763;48.130;11.602;2022-10-30T02:16:35;14.10;99.90
37938;DHT22;23763;48.130;11.602;2022-10-30T02:19:01;14.00;99.90
37938;DHT22;23763;48.130;11.602;2022-10-30T02:21:28;13.90;99.90
37938;DHT22;23763;48.130;11.602;2022-10-30T02:23:54;13.90;99.90
37938;DHT22;23763;48.130;11.602;2022-10-30T02:26:19;13.80;99.90
37938;DHT22;23763;48.130;11.602;2022-10-30T02:28:45;13.90;99.90
37938;DHT22;23763;48.130;11.602;2022-10-30T02:31:11;13.80;99.90
37938;DHT22;23763;48.130;11.602;2022-10-30T02:33:36;13.80;99.90
37938;DHT22;23763;48.130;11.602;2022-10-30T02:36:02;13.70;99.90
37938;DHT22;23763;48.130;11.602;2022-10-30T02:38:28;13.70;99.90
37938;DHT22;23763;48.130;11.602;2022-10-30T02:40:56;13.90;99.90
37938;DHT22;23763;48.130;11.602;2022-10-30T02:43:22;13.70;99.90
37938;DHT22;23763;48.130;11.602;2022-10-30T02:45:51;13.70;99.90
37938;DHT22;23763;48.130;11.602;2022-10-30T02:48:17;13.60;99.90
37938;DHT22;23763;48.130;11.602;2022-10-30T02:50:42;13.80;99.90
37938;DHT22;23763;48.130;11.602;2022-10-30T02:53:08;13.70;99.90
37938;DHT22;23763;48.130;11.602;2022-10-30T02:55:34;13.80;99.90
37938;DHT22;23763;48.130;11.602;2022-10-30T02:57:59;13.70;99.90
37938;DHT22;23763;48.130;11.602;2022-10-30T03:00:25;13.70;99.90
37938;DHT22;23763;48.130;11.602;2022-10-30T03:02:55;13.70;99.90
37938;DHT22;23763;48.130;11.602;2022-10-30T03:05:21;13.60;99.90
37938;DHT22;23763;48.130;11.602;2022-10-30T03:07:47;13.70;99.90
37938;DHT22;23763;48.130;11.602;2022-10-30T03:10:13;13.80;99.90
37938;DHT22;23763;48.130;11.602;2022-10-30T03:12:39;13.70;99.90
37938;DHT22;23763;48.130;11.602;2022-10-30T03:15:05;13.70;99.90
37938;DHT22;23763;48.130;11.602;2022-10-30T03:17:30;13.60;99.90
37938;DHT22;23763;48.130;11.602;2022-10-30T03:19:56;13.60;99.90
37938;DHT22;23763;48.130;11.602;2022-10-30T03:22:22;14.00;99.90
37938;DHT22;23763;48.130;11.602;2022-10-30T03:24:47;13.50;99.90
37938;DHT22;23763;48.130;11.602;2022-10-30T03:27:13;13.70;99.90
37938;DHT22;23763;48.130;11.602;2022-10-30T03:29:39;13.60;99.90
37938;DHT22;23763;48.130;11.602;2022-10-30T03:32:08;13.60;99.90
37938;DHT22;23763;48.130;11.602;2022-10-30T03:34:34;13.60;99.90
37938;DHT22;23763;48.130;11.602;2022-10-30T03:37:00;13.50;99.90
37938;DHT22;23763;48.130;11.602;2022-10-30T03:39:26;13.50;99.90
37938;DHT22;23763;48.130;11.602;2022-10-30T03:41:51;13.60;99.90
37938;DHT22;23763;48.130;11.602;2022-10-30T03:44:17;13.70;99.90
37938;DHT22;23763;48.130;11.602;2022-10-30T03:46:43;13.40;99.90
37938;DHT22;23763;48.130;11.602;2022-10-30T03:49:08;13.50;99.90
37938;DHT22;23763;48.130;11.602;2022-10-30T03:51:34;13.70;99.90
37938;DHT22;23763;48.130;11.602;2022-10-30T03:53:59;13.50;99.90
37938;DHT22;23763;48.130;11.602;2022-10-30T03:56:25;13.40;99.90
37938;DHT22;23763;48.130;11.602;2022-10-30T03:58:51;13.50;99.90
37938;DHT22;23763;48.130;11.602;2022-10-30T04:01:16;13.40;99.90
37938;DHT22;23763;48.130;11.602;2022-10-30T04:03:42;13.40;99.90
37938;DHT22;23763;48.130;11.602;2022-10-30T04:06:07;13.50;99.90
37938;DHT22;23763;48.130;11.602;2022-10-30T04:08:33;13.50;99.90
37938;DHT22;23763;48.130;11.602;2022-10-30T04:10:59;13.40;99.90
37938;DHT22;23763;48.130;11.602;2022-10-30T04:13:24;13.20;99.90
37938;DHT22;23763;48.130;11.602;2022-10-30T04:15:50;13.20;99.90
37938;DHT22;23763;48.130;11.602;2022-10-30T04:18:17;13.20;99.90
37938;DHT22;23763;48.130;11.602;2022-10-30T04:20:43;13.30;99.90
37938;DHT22;23763;48.130;11.602;2022-10-30T04:23:15;13.30;99.90
37938;DHT22;23763;48.130;11.602;2022-10-30T04:25:41;13.20;99.90
37938;DHT22;23763;48.130;11.602;2022-10-30T04:28:07;13.20;99.90
37938;DHT22;23763;48.130;11.602;2022-10-30T04:30:34;13.40;99.90
37938;DHT22;23763;48.130;11.602;2022-10-30T04:33:02;13.30;99.90
37938;DHT22;23763;48.130;11.602;2022-10-30T04:35:31;13.30;99.90
37938;DHT22;23763;48.130;11.602;2022-10-30T04:38:01;13.20;99.90
37938;DHT22;23763;48.130;11.602;2022-10-30T04:40:30;13.40;99.90
37938;DHT22;23763;48.130;11.602;2022-10-30T04:42:56;13.20;99.90
37938;DHT22;23763;48.130;11.602;2022-10-30T04:45:22;13.20;99.90
37938;DHT22;23763;48.130;11.602;2022-10-30T04:47:48;13.20;99.90
37938;DHT22;23763;48.130;11.602;2022-10-30T04:50:14;13.20;99.90
37938;DHT22;23763;48.130;11.602;2022-10-30T04:52:40;13.20;99.90
37938;DHT22;23763;48.130;11.602;2022-10-30T04:55:07;13.10;99.90
37938;DHT22;23763;48.130;11.602;2022-10-30T04:57:33;13.10;99.90
37938;DHT22;23763;48.130;11.602;2022-10-30T05:00:04;13.10;99.90
37938;DHT22;23763;48.130;11.602;2022-10-30T05:02:30;13.10;99.90
37938;DHT22;23763;48.130;11.602;2022-10-30T05:04:56;13.10;99.90
37938;DHT22;23763;48.130;11.602;2022-10-30T05:07:22;13.10;99.90
37938;DHT22;23763;48.130;11.602;2022-10-30T05:09:47;13.10;99.90
37938;DHT22;23763;48.130;11.602;2022-10-30T05:12:13;13.00;99.90
37938;DHT22;23763;48.130;11.602;2022-10-30T05:14:38;13.00;99.90
37938;DHT22;23763;48.130;11.602;2022-10-30T05:17:04;13.10;99.90
37938;DHT22;23763;48.130;11.602;2022-10-30T05:19:29;13.10;99.90
37938;DHT22;23763;48.130;11.602;2022-10-30T05:21:55;13.10;99.90
37938;DHT22;23763;48.130;11.602;2022-10-30T05:24:21;13.00;99.90
37938;DHT22;23763;48.130;11.602;2022-10-30T05:26:46;13.10;99.90
37938;DHT22;23763;48.130;11.602;2022-10-30T05:29:12;13.00;99.90
37938;DHT22;23763;48.130;11.602;2022-10-30T05:31:38;13.00;99.90
37938;DHT22;23763;48.130;11.602;2022-10-30T05:34:04;13.10;99.90
37938;DHT22;23763;48.130;11.602;2022-10-30T05:36:29;13.00;99.90
37938;DHT22;23763;48.130;11.602;2022-10-30T05:38:55;13.00;99.90
37938;DHT22;23763;48.130;11.602;2022-10-30T05:41:21;13.00;99.90
37938;DHT22;23763;48.130;11.602;2022-10-30T05:43:46;13.00;99.90
37938;DHT22;23763;48.130;11.602;2022-10-30T05:46:12;12.90;99.90
37938;DHT22;23763;48.130;11.602;2022-10-30T05:48:37;12.90;99.90
37938;DHT22;23763;48.130;11.602;2022-10-30T05:51:03;13.00;99.90
37938;DHT22;23763;48.130;11.602;2022-10-30T05:53:31;13.10;99.90
37938;DHT22;23763;48.130;11.602;2022-10-30T05:55:58;13.20;99.90
37938;DHT22;23763;48.130;11.602;2022-10-30T05:58:24;13.20;99.90
37938;DHT22;23763;48.130;11.602;2022-10-30T06:00:50;13.20;99.90
37938;DHT22;23763;48.130;11.602;2022-10-30T06:03:16;13.20;99.90
37938;DHT22;23763;48.130;11.602;2022-10-30T06:05:44;13.20;99.90
37938;DHT22;23763;48.130;11.602;2022-10-30T06:08:10;13.30;99.90
37938;DHT22;23763;48.130;11.602;2022-10-30T06:10:36;13.30;99.90
37938;DHT22;23763;48.130;11.602;2022-10-30T06:13:04;13.30;99.90
37938;DHT22;23763;48.130;11.602;2022-10-30T06:15:30;13.30;99.90
37938;DHT22;23763;48.130;11.602;2022-10-30T06:17:56;13.40;99.90
37938;DHT22;23763;48.130;11.602;2022-10-30T06:20:24;13.40;99.90
37938;DHT22;23763;48.130;11.602;2022-10-30T06:23:01;13.40;99.90
37938;DHT22;23763;48.130;11.602;2022-10-30T06:25:28;13.40;99.90
37938;DHT22;23763;48.130;11.602;2022-10-30T06:27:55;13.50;99.90
37938;DHT22;23763;48.130;11.602;2022-10-30T06:30:21;13.50;99.90
37938;DHT22;23763;48.130;11.602;2022-10-30T06:32:47;13.50;99.90
37938;DHT22;23763;48.130;11.602;2022-10-30T06:35:13;13.60;99.90
37938;DHT22;23763;48.130;11.602;2022-10-30T06:37:47;13.60;99.90
37938;DHT22;23763;48.130;11.602;2022-10-30T06:40:13;13.60;99.90
37938;DHT22;23763;48.130;11.602;2022-10-30T06:42:47;13.60;99.90
37938;DHT22;23763;48.130;11.602;2022-10-30T06:45:14;13.60;99.90
37938;DHT22;23763;48.130;11.602;2022-10-30T06:47:41;13.60;99.90
37938;DHT22;23763;48.130;11.602;2022-10-30T06:50:12;13.50;99.90
37938;DHT22;23763;48.130;11.602;2022-10-30T06:52:38;13.60;99.90
37938;DHT22;23763;48.130;11.602;2022-10-30T06:55:08;13.70;99.90
37938;DHT22;23763;48.130;11.602;2022-10-30T06:57:40;13.80;99.90
37938;DHT22;23763;48.130;11.602;2022-10-30T07:00:07;13.90;99.90
37938;DHT22;23763;48.130;11.602;2022-10-30T07:02:33;14.00;99.90
37938;DHT22;23763;48.130;11.602;2022-10-30T07:04:59;14.10;99.90
37938;DHT22;23763;48.130;11.602;2022-10-30T07:07:25;14.30;99.90
37938;DHT22;23763;48.130;11.602;2022-10-30T07:09:50;14.30;99.90
37938;DHT22;23763;48.130;11.602;2022-10-30T07:12:16;14.30;99.90
37938;DHT22;23763;48.130;11.602;2022-10-30T07:14:42;14.40;99.90
37938;DHT22;23763;48.130;11.602;2022-10-30T07:17:07;14.40;99.90
37938;DHT22;23763;48.130;11.602;2022-10-30T07:19:33;14.50;99.90
37938;DHT22;23763;48.130;11.602;2022-10-30T07:22:02;14.50;99.90
37938;DHT22;23763;48.130;11.602;2022-10-30T07:24:28;14.60;99.90
37938;DHT22;23763;48.130;11.602;2022-10-30T07:26:55;14.70;99.90
37938;DHT22;23763;48.130;11.602;2022-10-30T07:29:21;14.80;99.90
37938;DHT22;23763;48.130;11.602;2022-10-30T07:31:46;14.80;99.90
37938;DHT22;23763;48.130;11.602;2022-10-30T07:34:14;14.90;99.90
37938;DHT22;23763;48.130;11.602;2022-10-30T07:36:39;15.10;99.90
37938;DHT22;23763;48.130;11.602;2022-10-30T07:39:05;15.10;99.90
37938;DHT22;23763;48.130;11.602;2022-10-30T07:41:30;15.10;99.90
37938;DHT22;23763;48.130;11.602;2022-10-30T07:43:56;15.20;99.90
37938;DHT22;23763;48.130;11.602;2022-10-30T07:46:22;15.20;99.90
37938;DHT22;23763;48.130;11.602;2022-10-30T07:48:47;15.30;99.90
37938;DHT22;23763;48.130;11.602;2022-10-30T07:51:13;15.40;99.90
37938;DHT22;23763;48.130;11.602;2022-10-30T07:53:39;15.50;99.90
37938;DHT22;23763;48.130;11.602;2022-10-30T07:56:05;15.60;99.90
37938;DHT22;23763;48.130;11.602;2022-10-30T07:58:31;15.70;99.90
37938;DHT22;23763;48.130;11.602;2022-10-30T08:00:56;15.80;99.90
37938;DHT22;23763;48.130;11.602;2022-10-30T08:03:22;15.90;99.90
37938;DHT22;23763;48.130;11.602;2022-10-30T08:05:48;15.90;99.90
37938;DHT22;23763;48.130;11.602;2022-10-30T08:08:13;15.90;99.90
37938;DHT22;23763;48.130;11.602;2022-10-30T08:10:39;16.00;99.90
37938;DHT22;23763;48.130;11.602;2022-10-30T08:13:05;16.00;99.90
37938;DHT22;23763;48.130;11.602;2022-10-30T08:15:30;16.00;99.90
37938;DHT22;23763;48.130;11.602;2022-10-30T08:17:57;16.00;99.90
37938;DHT22;23763;48.130;11.602;2022-10-30T08:20:24;16.20;99.90
37938;DHT22;23763;48.130;11.602;2022-10-30T08:22:56;16.20;99.90
37938;DHT22;23763;48.130;11.602;2022-10-30T08:25:25;16.30;99.90
37938;DHT22;23763;48.130;11.602;2022-10-30T08:28:00;16.30;99.90
37938;DHT22;23763;48.130;11.602;2022-10-30T08:30:30;16.40;99.90
37938;DHT22;23763;48.130;11.602;2022-10-30T08:32:59;16.50;99.90
37938;DHT22;23763;48.130;11.602;2022-10-30T08:38:32;16.70;99.90
37938;DHT22;23763;48.130;11.602;2022-10-30T08:40:58;16.70;99.90
37938;DHT22;23763;48.130;11.602;2022-10-30T08:43:25;16.80;99.90
37938;DHT22;23763;48.130;11.602;2022-10-30T08:45:51;16.80;99.90
37938;DHT22;23763;48.130;11.602;2022-10-30T08:48:17;16.90;99.90
37938;DHT22;23763;48.130;11.602;2022-10-30T08:50:43;17.00;99.90
37938;DHT22;23763;48.130;11.602;2022-10-30T08:53:11;17.10;99.90
37938;DHT22;23763;48.130;11.602;2022-10-30T08:55:36;17.10;99.90
37938;DHT22;23763;48.130;11.602;2022-10-30T08:58:02;17.20;99.90
37938;DHT22;23763;48.130;11.602;2022-10-30T09:00:34;17.30;99.90
37938;DHT22;23763;48.130;11.602;2022-10-30T09:03:00;17.30;99.90
37938;DHT22;23763;48.130;11.602;2022-10-30T09:05:26;17.40;99.90
37938;DHT22;23763;48.130;11.602;2022-10-30T09:07:56;17.40;99.90
37938;DHT22;23763;48.130;11.602;2022-10-30T09:10:23;17.50;99.90
37938;DHT22;23763;48.130;11.602;2022-10-30T09:12:54;17.60;99.90
37938;DHT22;23763;48.130;11.602;2022-10-30T09:15:20;17.70;99.90
37938;DHT22;23763;48.130;11.602;2022-10-30T09:17:46;17.80;99.90
37938;DHT22;23763;48.130;11.602;2022-10-30T09:20:11;17.90;99.90
37938;DHT22;23763;48.130;11.602;2022-10-30T09:22:40;17.90;99.90
37938;DHT22;23763;48.130;11.602;2022-10-30T09:25:07;18.10;99.90
37938;DHT22;23763;48.130;11.602;2022-10-30T09:27:37;18.20;99.90
37938;DHT22;23763;48.130;11.602;2022-10-30T09:30:03;18.30;99.90
37938;DHT22;23763;48.130;11.602;2022-10-30T09:32:29;18.40;99.90
37938;DHT22;23763;48.130;11.602;2022-10-30T09:34:55;18.60;99.90
37938;DHT22;23763;48.130;11.602;2022-10-30T09:37:20;18.60;99.90
37938;DHT22;23763;48.130;11.602;2022-10-30T09:39:47;18.70;99.90
37938;DHT22;23763;48.130;11.602;2022-10-30T09:50:17;18.90;99.90
37938;DHT22;23763;48.130;11.602;2022-10-30T09:52:56;19.10;99.90
37938;DHT22;23763;48.130;11.602;2022-10-30T10:00:52;19.20;99.90
37938;DHT22;23763;48.130;11.602;2022-10-30T10:06:18;19.20;99.90
37938;DHT22;23763;48.130;11.602;2022-10-30T10:08:48;19.20;99.90
37938;DHT22;23763;48.130;11.602;2022-10-30T10:11:24;19.30;99.90
37938;DHT22;23763;48.130;11.602;2022-10-30T10:13:56;19.30;99.90
37938;DHT22;23763;48.130;11.602;2022-10-30T10:16:28;19.30;99.90
37938;DHT22;23763;48.130;11.602;2022-10-30T10:24:20;19.50;99.90
37938;DHT22;23763;48.130;11.602;2022-10-30T10:26:48;19.50;99.90
37938;DHT22;23763;48.130;11.602;2022-10-30T10:35:15;19.80;99.90
37938;DHT22;23763;48.130;11.602;2022-10-30T10:41:00;19.90;99.90
37938;DHT22;23763;48.130;11.602;2022-10-30T10:43:34;19.80;99.90
37938;DHT22;23763;48.130;11.602;2022-10-30T10:52:14;20.10;99.90
37938;DHT22;23763;48.130;11.602;2022-10-30T10:54:45;20.10;99.90
37938;DHT22;23763;48.130;11.602;2022-10-30T10:57:25;20.10;99.90
37938;DHT22;23763;48.130;11.602;2022-10-30T11:00:13;20.20;99.90
37938;DHT22;23763;48.130;11.602;2022-10-30T11:05:45;20.30;99.90
37938;DHT22;23763;48.130;11.602;2022-10-30T11:08:28;20.30;99.90
37938;DHT22;23763;48.130;11.602;2022-10-30T11:10:58;20.40;99.90
37938;DHT22;23763;48.130;11.602;2022-10-30T11:13:34;20.40;99.90
37938;DHT22;23763;48.130;11.602;2022-10-30T11:18:37;20.60;99.90
37938;DHT22;23763;48.130;11.602;2022-10-30T11:21:06;20.70;99.90
37938;DHT22;23763;48.130;11.602;2022-10-30T11:23:39;20.80;99.90
37938;DHT22;23763;48.130;11.602;2022-10-30T11:29:10;20.80;99.90
37938;DHT22;23763;48.130;11.602;2022-10-30T11:31:41;20.80;99.90
37938;DHT22;23763;48.130;11.602;2022-10-30T11:36:39;20.90;99.90
37938;DHT22;23763;48.130;11.602;2022-10-30T11:39:10;21.00;99.90
37938;DHT22;23763;48.130;11.602;2022-10-30T11:41:36;20.90;99.90
37938;DHT22;23763;48.130;11.602;2022-10-30T11:44:04;20.80;99.90
37938;DHT22;23763;48.130;11.602;2022-10-30T11:46:34;20.70;99.90
37938;DHT22;23763;48.130;11.602;2022-10-30T11:49:01;20.60;99.90
37938;DHT22;23763;48.130;11.602;2022-10-30T11:51:38;20.60;99.90
37938;DHT22;23763;48.130;11.602;2022-10-30T11:54:05;20.50;99.90
37938;DHT22;23763;48.130;11.602;2022-10-30T11:56:33;20.50;99.90
37938;DHT22;23763;48.130;11.602;2022-10-30T11:59:00;20.50;99.90
37938;DHT22;23763;48.130;11.602;2022-10-30T12:01:36;20.60;99.90
37938;DHT22;23763;48.130;11.602;2022-10-30T12:04:15;20.70;99.90
37938;DHT22;23763;48.130;11.602;2022-10-30T12:06:46;20.80;99.90
37938;DHT22;23763;48.130;11.602;2022-10-30T12:09:18;20.80;99.90
37938;DHT22;23763;48.130;11.602;2022-10-30T12:11:44;20.90;99.90
37938;DHT22;23763;48.130;11.602;2022-10-30T12:14:22;21.00;99.90
37938;DHT22;23763;48.130;11.602;2022-10-30T12:16:50;21.10;99.90
37938;DHT22;23763;48.130;11.602;2022-10-30T12:19:19;21.30;99.90
37938;DHT22;23763;48.130;11.602;2022-10-30T12:21:54;21.40;99.90
37938;DHT22;23763;48.130;11.602;2022-10-30T12:24:31;21.60;99.90
37938;DHT22;23763;48.130;11.602;2022-10-30T12:27:01;21.60;99.90
37938;DHT22;23763;48.130;11.602;2022-10-30T12:29:41;21.70;99.90
37938;DHT22;23763;48.130;11.602;2022-10-30T12:32:13;21.70;99.90
37938;DHT22;23763;48.130;11.602;2022-10-30T12:34:57;21.80;99.90
37938;DHT22;23763;48.130;11.602;2022-10-30T12:37:30;21.90;99.90
37938;DHT22;23763;48.130;11.602;2022-10-30T12:40:43;21.90;99.90
37938;DHT22;23763;48.130;11.602;2022-10-30T12:43:10;22.00;99.90
37938;DHT22;23763;48.130;11.602;2022-10-30T12:45:41;22.00;99.90
37938;DHT22;23763;48.130;11.602;2022-10-30T12:48:13;22.00;99.90
37938;DHT22;23763;48.130;11.602;2022-10-30T12:53:33;21.90;99.90
37938;DHT22;23763;48.130;11.602;2022-10-30T12:56:07;21.90;99.90
37938;DHT22;23763;48.130;11.602;2022-10-30T12:58:55;21.80;99.90
37938;DHT22;23763;48.130;11.602;2022-10-30T13:01:34;21.90;99.90
37938;DHT22;23763;48.130;11.602;2022-10-30T13:04:30;22.00;99.90
37938;DHT22;23763;48.130;11.602;2022-10-30T13:10:04;21.90;99.90
37938;DHT22;23763;48.130;11.602;2022-10-30T13:12:38;21.80;99.90
37938;DHT22;23763;48.130;11.602;2022-10-30T13:17:35;21.70;99.90
37938;DHT22;23763;48.130;11.602;2022-10-30T13:20:00;21.70;99.90
37938;DHT22;23763;48.130;11.602;2022-10-30T13:22:54;21.70;99.90
37938;DHT22;23763;48.130;11.602;2022-10-30T13:25:32;21.70;99.90
37938;DHT22;23763;48.130;11.602;2022-10-30T13:28:24;21.70;99.90
37938;DHT22;23763;48.130;11.602;2022-10-30T13:33:58;21.60;99.90
37938;DHT22;23763;48.130;11.602;2022-10-30T13:36:40;21.60;99.90
37938;DHT22;23763;48.130;11.602;2022-10-30T13:42:05;21.50;99.90
37938;DHT22;23763;48.130;11.602;2022-10-30T13:47:28;21.70;99.90
37938;DHT22;23763;48.130;11.602;2022-10-30T13:52:33;21.70;99.90
37938;DHT22;23763;48.130;11.602;2022-10-30T13:55:23;21.70;99.90
37938;DHT22;23763;48.130;11.602;2022-10-30T14:06:08;21.80;99.90
37938;DHT22;23763;48.130;11.602;2022-10-30T14:11:00;21.80;99.90
37938;DHT22;23763;48.130;11.602;2022-10-30T14:16:44;21.80;99.90
37938;DHT22;23763;48.130;11.602;2022-10-30T14:19:11;21.80;99.90
37938;DHT22;23763;48.130;11.602;2022-10-30T14:21:43;21.70;99.90
37938;DHT22;23763;48.130;11.602;2022-10-30T14:24:17;21.70;99.90
37938;DHT22;23763;48.130;11.602;2022-10-30T14:26:51;21.60;99.90
37938;DHT22;23763;48.130;11.602;2022-10-30T14:39:51;21.30;99.90
37938;DHT22;23763;48.130;11.602;2022-10-30T14:50:29;20.90;99.90
37938;DHT22;23763;48.130;11.602;2022-10-30T14:58:32;20.40;99.90
37938;DHT22;23763;48.130;11.602;2022-10-30T15:01:26;20.30;99.90
37938;DHT22;23763;48.130;11.602;2022-10-30T15:04:06;20.20;99.90
37938;DHT22;23763;48.130;11.602;2022-10-30T15:07:05;20.10;99.90
37938;DHT22;23763;48.130;11.602;2022-10-30T15:09:39;20.10;99.90
37938;DHT22;23763;48.130;11.602;2022-10-30T15:12:25;20.10;99.90
37938;DHT22;23763;48.130;11.602;2022-10-30T15:14:59;20.10;99.90
37938;DHT22;23763;48.130;11.602;2022-10-30T15:17:33;20.00;99.90
37938;DHT22;23763;48.130;11.602;2022-10-30T15:20:05;19.90;99.90
37938;DHT22;23763;48.130;11.602;2022-10-30T15:22:32;19.90;99.90
37938;DHT22;23763;48.130;11.602;2022-10-30T15:25:00;19.80;99.90
37938;DHT22;23763;48.130;11.602;2022-10-30T15:27:27;19.80;99.90
37938;DHT22;23763;48.130;11.602;2022-10-30T15:29:59;19.70;99.90
37938;DHT22;23763;48.130;11.602;2022-10-30T15:32:25;19.70;99.90
37938;DHT22;23763;48.130;11.602;2022-10-30T15:34:59;19.60;99.90
37938;DHT22;23763;48.130;11.602;2022-10-30T15:37:26;19.50;99.90
37938;DHT22;23763;48.130;11.602;2022-10-30T15:40:18;19.40;99.90
37938;DHT22;23763;48.130;11.602;2022-10-30T15:42:45;19.40;99.90
37938;DHT22;23763;48.130;11.602;2022-10-30T15:46:01;19.40;99.90
37938;DHT22;23763;48.130;11.602;2022-10-30T15:48:31;19.40;99.90
37938;DHT22;23763;48.130;11.602;2022-10-30T15:50:59;19.20;99.90
37938;DHT22;23763;48.130;11.602;2022-10-30T15:56:01;19.10;99.90
37938;DHT22;23763;48.130;11.602;2022-10-30T15:58:27;18.90;99.90
37938;DHT22;23763;48.130;11.602;2022-10-30T16:01:00;18.80;99.90
37938;DHT22;23763;48.130;11.602;2022-10-30T16:03:26;18.80;99.90
37938;DHT22;23763;48.130;11.602;2022-10-30T16:06:14;18.70;99.90
37938;DHT22;23763;48.130;11.602;2022-10-30T16:08:44;18.60;99.90
37938;DHT22;23763;48.130;11.602;2022-10-30T16:11:11;18.70;99.90
37938;DHT22;23763;48.130;11.602;2022-10-30T16:13:37;18.60;99.90
37938;DHT22;23763;48.130;11.602;2022-10-30T16:16:03;18.40;99.90
37938;DHT22;23763;48.130;11.602;2022-10-30T16:18:30;18.40;99.90
37938;DHT22;23763;48.130;11.602;2022-10-30T16:21:04;18.30;99.90
37938;DHT22;23763;48.130;11.602;2022-10-30T16:23:39;18.30;99.90
37938;DHT22;23763;48.130;11.602;2022-10-30T16:26:06;18.20;99.90
37938;DHT22;23763;48.130;11.602;2022-10-30T16:28:35;18.20;99.90
37938;DHT22;23763;48.130;11.602;2022-10-30T16:31:05;18.20;99.90
37938;DHT22;23763;48.130;11.602;2022-10-30T16:33:33;18.30;99.90
37938;DHT22;23763;48.130;11.602;2022-10-30T16:36:01;18.40;99.90
37938;DHT22;23763;48.130;11.602;2022-10-30T16:38:33;18.40;99.90
37938;DHT22;23763;48.130;11.602;2022-10-30T16:41:06;18.50;99.90
37938;DHT22;23763;48.130;11.602;2022-10-30T16:43:33;18.40;99.90
37938;DHT22;23763;48.130;11.602;2022-10-30T16:46:33;18.50;99.90
37938;DHT22;23763;48.130;11.602;2022-10-30T16:49:01;18.40;99.90
37938;DHT22;23763;48.130;11.602;2022-10-30T16:51:28;18.40;99.90
37938;DHT22;23763;48.130;11.602;2022-10-30T16:53:54;18.40;99.90
37938;DHT22;23763;48.130;11.602;2022-10-30T16:56:23;18.30;99.90
37938;DHT22;23763;48.130;11.602;2022-10-30T16:58:50;18.30;99.90
37938;DHT22;23763;48.130;11.602;2022-10-30T17:01:16;18.20;99.90
37938;DHT22;23763;48.130;11.602;2022-10-30T17:03:42;18.10;99.90
37938;DHT22;23763;48.130;11.602;2022-10-30T17:06:41;18.00;99.90
37938;DHT22;23763;48.130;11.602;2022-10-30T17:09:33;18.00;99.90
37938;DHT22;23763;48.130;11.602;2022-10-30T17:12:11;17.90;99.90
37938;DHT22;23763;48.130;11.602;2022-10-30T17:19:54;17.70;99.90
37938;DHT22;23763;48.130;11.602;2022-10-30T17:22:20;17.60;99.90
37938;DHT22;23763;48.130;11.602;2022-10-30T17:24:46;17.50;99.90
37938;DHT22;23763;48.130;11.602;2022-10-30T17:27:45;17.50;99.90
37938;DHT22;23763;48.130;11.602;2022-10-30T17:30:38;17.40;99.90
37938;DHT22;23763;48.130;11.602;2022-10-30T17:35:48;17.30;99.90
37938;DHT22;23763;48.130;11.602;2022-10-30T17:38:13;17.50;99.90
37938;DHT22;23763;48.130;11.602;2022-10-30T17:40:39;17.20;99.90
37938;DHT22;23763;48.130;11.602;2022-10-30T17:43:05;17.20;99.90
37938;DHT22;23763;48.130;11.602;2022-10-30T17:45:32;17.20;99.90
37938;DHT22;23763;48.130;11.602;2022-10-30T17:47:58;17.10;99.90
37938;DHT22;23763;48.130;11.602;2022-10-30T17:50:24;17.10;99.90
37938;DHT22;23763;48.130;11.602;2022-10-30T17:52:49;17.00;99.90